Time;durP1;ratioP1;P1;durP2;ratioP2;P2;SDS_P1;SDS_P2;PMS_P1;PMS_P2;Temp;Humidity;BMP_temperature;BMP_pressure;BME280_temperature;BME280_humidity;BME280_pressure;Samples;Min_cycle;Max_cycle;Signal;HPM_P1;HPM_P2
2023/03/16 00:02:04;;;;;;;9.90;6.90;;;11.90;67.50;;;;;;5036470;28;20127;-75
2023/03/16 00:04:31;;;;;;;7.45;6.72;;;11.90;67.50;;;;;;5037356;28;20026;-76
2023/03/16 00:06:58;;;;;;;7.25;6.55;;;11.90;67.40;;;;;;5036416;28;20038;-76
2023/03/16 00:09:29;;;;;;;7.63;6.75;;;11.90;67.50;;;;;;5019447;28;20025;-76
2023/03/16 00:12:02;;;;;;;7.68;6.65;;;11.90;67.40;;;;;;5029299;28;20025;-76
2023/03/16 00:14:29;;;;;;;7.40;6.68;;;11.90;67.60;;;;;;5036630;28;20060;-76
2023/03/16 00:16:55;;;;;;;8.05;6.47;;;11.90;67.70;;;;;;5036135;28;20416;-75
2023/03/16 00:19:21;;;;;;;7.40;6.70;;;11.90;67.70;;;;;;5035627;28;20025;-76
2023/03/16 00:21:51;;;;;;;8.60;7.22;;;11.90;67.70;;;;;;5036059;28;20029;-76
2023/03/16 00:24:18;;;;;;;7.90;6.60;;;11.90;67.80;;;;;;5040041;28;20055;-76
2023/03/16 00:26:47;;;;;;;7.63;6.80;;;11.90;67.80;;;;;;5024984;28;20039;-76
2023/03/16 00:29:14;;;;;;;9.70;7.82;;;11.90;67.90;;;;;;5026866;28;20060;-76
2023/03/16 00:31:43;;;;;;;9.52;7.13;;;11.90;67.90;;;;;;5024064;28;20033;-76
2023/03/16 00:34:12;;;;;;;9.20;6.88;;;11.90;67.90;;;;;;4989611;28;20120;-75
2023/03/16 00:36:38;;;;;;;8.05;7.15;;;11.90;67.90;;;;;;5035999;28;20045;-76
2023/03/16 00:39:05;;;;;;;9.10;6.75;;;11.90;67.80;;;;;;5024254;28;20033;-76
2023/03/16 00:41:36;;;;;;;8.18;7.25;;;11.90;67.90;;;;;;5034785;28;20037;-76
2023/03/16 00:44:05;;;;;;;8.57;6.80;;;11.90;67.80;;;;;;5006609;28;20461;-77
2023/03/16 00:46:31;;;;;;;7.75;6.93;;;11.90;67.80;;;;;;5018558;28;20033;-76
2023/03/16 00:48:57;;;;;;;10.10;6.50;;;11.90;67.90;;;;;;4989509;28;20036;-76
2023/03/16 00:51:23;;;;;;;9.25;6.78;;;11.80;67.90;;;;;;5016811;28;20070;-76
2023/03/16 00:53:50;;;;;;;7.95;7.15;;;11.90;68.00;;;;;;5037140;28;20120;-76
2023/03/16 00:56:16;;;;;;;7.38;6.55;;;11.90;68.00;;;;;;5021508;28;20452;-76
2023/03/16 00:58:42;;;;;;;7.40;6.65;;;11.80;67.90;;;;;;5021555;28;20033;-76
2023/03/16 01:01:19;;;;;;;8.32;6.50;;;11.90;68.10;;;;;;5024181;28;20495;-76
2023/03/16 01:03:45;;;;;;;7.32;6.50;;;11.80;68.00;;;;;;5023143;28;20061;-76
2023/03/16 01:06:14;;;;;;;9.60;6.75;;;11.80;68.00;;;;;;5026581;28;20037;-76
2023/03/16 01:08:41;;;;;;;9.07;6.47;;;11.80;68.00;;;;;;5035729;28;20048;-76
2023/03/16 01:11:10;;;;;;;7.90;6.55;;;11.80;67.90;;;;;;5024623;28;20532;-76
2023/03/16 01:13:37;;;;;;;7.82;7.00;;;11.80;67.90;;;;;;5035074;28;20131;-76
2023/03/16 01:16:03;;;;;;;9.48;6.68;;;11.80;68.00;;;;;;5036282;28;20442;-76
2023/03/16 01:18:33;;;;;;;7.90;6.50;;;11.80;67.90;;;;;;5036036;28;20039;-76
2023/03/16 01:21:00;;;;;;;8.95;6.78;;;11.80;67.90;;;;;;5035830;28;20467;-76
2023/03/16 01:23:29;;;;;;;7.43;6.72;;;11.80;68.00;;;;;;5025165;28;20048;-76
2023/03/16 01:25:56;;;;;;;6.80;6.20;;;11.80;68.00;;;;;;5024685;28;20500;-75
2023/03/16 01:28:27;;;;;;;7.65;6.78;;;11.80;67.90;;;;;;5035151;28;20112;-76
2023/03/16 01:31:01;;;;;;;8.90;6.90;;;11.80;67.80;;;;;;5001601;28;20045;-75
2023/03/16 01:33:28;;;;;;;7.15;6.25;;;11.80;67.80;;;;;;5004894;28;20082;-75
2023/03/16 01:35:56;;;;;;;7.05;6.35;;;11.80;67.80;;;;;;5021687;28;20068;-76
2023/03/16 01:38:22;;;;;;;8.95;6.53;;;11.80;67.70;;;;;;5003510;28;20475;-76
2023/03/16 01:40:50;;;;;;;7.07;6.05;;;11.70;67.70;;;;;;5017278;28;20045;-76
2023/03/16 01:43:19;;;;;;;8.02;6.55;;;11.70;67.70;;;;;;5023912;28;20144;-76
2023/03/16 01:46:16;;;;;;;7.05;6.10;;;11.70;67.70;;;;;;5002173;28;20132;-76
2023/03/16 01:48:50;;;;;;;7.85;6.25;;;11.70;67.70;;;;;;5021224;28;20037;-76
2023/03/16 01:51:26;;;;;;;6.88;5.97;;;11.70;67.70;;;;;;5022260;28;20045;-75
2023/03/16 01:53:57;;;;;;;6.90;5.93;;;11.70;67.70;;;;;;5018422;28;20052;-76
2023/03/16 01:56:34;;;;;;;18.65;6.45;;;11.70;67.90;;;;;;5020490;28;20033;-76
2023/03/16 01:59:04;;;;;;;6.85;6.10;;;11.70;67.90;;;;;;5024041;28;20042;-75
2023/03/16 02:01:30;;;;;;;8.45;5.90;;;11.80;67.90;;;;;;5024530;28;20029;-76
2023/03/16 02:04:15;;;;;;;6.95;5.40;;;11.70;67.90;;;;;;5021189;28;20127;-76
2023/03/16 02:06:43;;;;;;;6.15;5.50;;;11.70;67.90;;;;;;5016622;28;20067;-76
2023/03/16 02:09:10;;;;;;;7.32;5.85;;;11.70;67.90;;;;;;5037004;28;20069;-75
2023/03/16 02:11:36;;;;;;;6.45;5.75;;;11.70;67.90;;;;;;5034636;28;20065;-76
2023/03/16 02:14:11;;;;;;;6.18;5.40;;;11.70;67.80;;;;;;5033627;28;20037;-75
2023/03/16 02:16:37;;;;;;;7.13;6.10;;;11.70;68.40;;;;;;4991977;28;20041;-75
2023/03/16 02:19:10;;;;;;;10.13;5.95;;;11.70;67.80;;;;;;5034564;28;20119;-76
2023/03/16 02:22:05;;;;;;;9.52;6.00;;;11.70;67.70;;;;;;5022876;28;20500;-76
2023/03/16 02:24:34;;;;;;;6.35;5.75;;;11.70;67.70;;;;;;5022090;28;20069;-76
2023/03/16 02:27:09;;;;;;;8.38;6.20;;;11.70;67.70;;;;;;5020389;28;20396;-76
2023/03/16 02:30:06;;;;;;;6.35;5.38;;;11.70;67.70;;;;;;5021805;28;20057;-75
2023/03/16 02:32:41;;;;;;;5.95;5.10;;;11.70;67.70;;;;;;5021548;28;20416;-75
2023/03/16 02:35:09;;;;;;;6.55;5.60;;;11.70;67.60;;;;;;5021771;28;20392;-77
2023/03/16 02:37:35;;;;;;;6.00;5.45;;;11.70;67.50;;;;;;5015377;28;20046;-76
2023/03/16 02:40:22;;;;;;;6.85;4.97;;;11.70;67.70;;;;;;5022110;28;20044;-75
2023/03/16 02:43:04;;;;;;;9.73;5.68;;;11.70;67.70;;;;;;5020957;28;20529;-75
2023/03/16 02:45:46;;;;;;;6.93;4.93;;;11.70;67.70;;;;;;5024596;28;20041;-76
2023/03/16 02:48:21;;;;;;;6.35;5.32;;;11.60;67.60;;;;;;5024813;28;20085;-76
2023/03/16 02:50:50;;;;;;;5.82;4.78;;;11.60;67.50;;;;;;5018835;28;20034;-76
2023/03/16 02:53:16;;;;;;;5.43;4.88;;;11.60;67.50;;;;;;5017605;28;20688;-76
2023/03/16 02:55:44;;;;;;;5.70;4.93;;;11.60;67.50;;;;;;5033346;28;20056;-76
2023/03/16 02:58:11;;;;;;;5.57;5.03;;;11.60;67.60;;;;;;5033610;28;20065;-76
2023/03/16 03:00:37;;;;;;;6.22;5.22;;;11.60;67.60;;;;;;5023164;28;20037;-76
2023/03/16 03:03:04;;;;;;;5.50;4.95;;;11.60;67.60;;;;;;5021964;28;20041;-76
2023/03/16 03:05:31;;;;;;;6.07;5.05;;;11.70;67.60;;;;;;5020172;28;20030;-75
2023/03/16 03:07:57;;;;;;;6.28;4.60;;;11.60;67.60;;;;;;5020255;28;20487;-76
2023/03/16 03:10:23;;;;;;;7.43;5.13;;;11.60;67.50;;;;;;5021505;28;20041;-76
2023/03/16 03:12:50;;;;;;;6.70;4.80;;;11.60;67.50;;;;;;5021480;28;20046;-76
2023/03/16 03:15:17;;;;;;;7.55;4.70;;;11.60;67.40;;;;;;5018708;28;20052;-76
2023/03/16 03:17:55;;;;;;;5.90;4.97;;;11.60;67.40;;;;;;5017007;28;20535;-77
2023/03/16 03:20:21;;;;;;;7.25;4.80;;;11.60;67.30;;;;;;5018821;28;20033;-76
2023/03/16 03:22:48;;;;;;;7.75;5.25;;;11.60;67.30;;;;;;5023913;28;20508;-76
2023/03/16 03:25:16;;;;;;;5.97;4.57;;;11.60;67.30;;;;;;5007647;28;20037;-76
2023/03/16 03:27:43;;;;;;;5.95;4.75;;;11.60;67.20;;;;;;5023571;28;20456;-76
2023/03/16 03:30:15;;;;;;;4.65;4.22;;;11.60;67.20;;;;;;5023460;28;20052;-76
2023/03/16 03:32:42;;;;;;;7.13;5.28;;;11.60;67.20;;;;;;5018903;28;20254;-76
2023/03/16 03:35:11;;;;;;;6.05;4.72;;;11.60;67.30;;;;;;5006536;28;20140;-75
2023/03/16 03:37:43;;;;;;;5.18;4.60;;;11.60;67.30;;;;;;5015672;28;20052;-75
2023/03/16 03:40:12;;;;;;;5.22;4.60;;;11.60;67.30;;;;;;5007171;28;20598;-75
2023/03/16 03:42:40;;;;;;;5.22;4.72;;;11.60;67.30;;;;;;5023338;28;20164;-77
2023/03/16 03:45:07;;;;;;;5.35;4.28;;;11.60;67.30;;;;;;4999722;28;20033;-78
2023/03/16 03:47:33;;;;;;;6.13;4.55;;;11.60;67.30;;;;;;5014597;28;20041;-76
2023/03/16 03:50:00;;;;;;;5.25;4.15;;;11.60;67.10;;;;;;4987868;28;20037;-79
2023/03/16 03:52:27;;;;;;;4.93;4.43;;;11.60;67.10;;;;;;5004846;28;20038;-76
2023/03/16 03:54:53;;;;;;;5.53;4.53;;;11.60;67.10;;;;;;5019389;28;20422;-75
2023/03/16 03:57:19;;;;;;;6.65;4.68;;;11.60;67.20;;;;;;5015463;28;20033;-76
2023/03/16 03:59:45;;;;;;;7.70;4.38;;;11.60;67.30;;;;;;5017615;28;20026;-76
2023/03/16 04:02:23;;;;;;;5.88;4.72;;;11.60;67.30;;;;;;5014093;28;20038;-75
2023/03/16 04:04:53;;;;;;;6.63;4.45;;;11.60;67.30;;;;;;5003787;28;20041;-74
2023/03/16 04:07:19;;;;;;;7.70;5.05;;;11.60;67.30;;;;;;5014790;28;20405;-74
2023/03/16 04:09:46;;;;;;;5.97;5.00;;;11.60;67.30;;;;;;5017341;28;20040;-74
2023/03/16 04:12:22;;;;;;;7.20;4.72;;;11.60;67.30;;;;;;5020754;28;20040;-76
2023/03/16 04:14:50;;;;;;;4.88;4.38;;;11.60;67.30;;;;;;5018741;28;20895;-75
2023/03/16 04:17:16;;;;;;;4.80;4.40;;;11.60;67.20;;;;;;5014265;28;20539;-76
2023/03/16 04:19:43;;;;;;;5.97;5.25;;;11.50;67.00;;;;;;5001221;28;20029;-76
2023/03/16 04:22:13;;;;;;;6.15;5.13;;;11.60;67.00;;;;;;5023018;28;20121;-76
2023/03/16 04:24:39;;;;;;;5.45;4.85;;;11.60;66.90;;;;;;5021720;28;20487;-76
2023/03/16 04:27:05;;;;;;;6.28;4.78;;;11.60;67.10;;;;;;5020034;28;20044;-76
2023/03/16 04:29:31;;;;;;;6.18;4.45;;;11.60;66.90;;;;;;5005062;28;20132;-75
2023/03/16 04:31:58;;;;;;;7.63;4.90;;;11.60;66.80;;;;;;5017862;28;20029;-76
2023/03/16 04:34:26;;;;;;;6.22;4.55;;;11.60;66.80;;;;;;5005058;28;20065;-79
2023/03/16 04:36:56;;;;;;;6.63;4.25;;;11.60;66.80;;;;;;5018750;28;20068;-80
2023/03/16 04:39:22;;;;;;;4.80;4.30;;;11.60;66.90;;;;;;5019220;28;20038;-77
2023/03/16 04:41:50;;;;;;;6.38;4.60;;;11.60;66.90;;;;;;5018553;28;20043;-75
2023/03/16 04:44:20;;;;;;;6.70;4.47;;;11.50;66.90;;;;;;5016275;28;20408;-75
2023/03/16 04:46:49;;;;;;;6.60;4.68;;;11.60;67.20;;;;;;5017302;28;20128;-76
2023/03/16 04:49:16;;;;;;;4.82;4.30;;;11.50;67.50;;;;;;5015536;28;20099;-76
2023/03/16 04:51:44;;;;;;;6.40;4.50;;;11.50;67.90;;;;;;5022221;28;20056;-78
2023/03/16 04:54:14;;;;;;;9.55;5.38;;;11.60;68.70;;;;;;5022390;28;20080;-77
2023/03/16 04:56:42;;;;;;;6.25;4.75;;;11.60;69.20;;;;;;5002817;28;20120;-76
2023/03/16 04:59:27;;;;;;;9.30;5.60;;;11.60;69.80;;;;;;5008481;28;20029;-77
2023/03/16 05:02:03;;;;;;;8.85;5.32;;;11.60;70.10;;;;;;5019059;28;20033;-75
2023/03/16 05:04:29;;;;;;;7.78;5.15;;;11.60;71.90;;;;;;5021984;28;20087;-74
2023/03/16 05:06:55;;;;;;;8.48;5.15;;;11.60;72.10;;;;;;5022035;28;20100;-75
2023/03/16 05:09:26;;;;;;;8.10;5.10;;;11.60;72.10;;;;;;5022953;28;20187;-75
2023/03/16 05:11:52;;;;;;;8.60;5.43;;;11.60;71.80;;;;;;5017977;28;20120;-74
2023/03/16 05:14:18;;;;;;;10.77;5.07;;;11.60;71.90;;;;;;5016694;28;20180;-75
2023/03/16 05:17:07;;;;;;;6.05;4.63;;;11.60;71.80;;;;;;5013505;28;20052;-75
2023/03/16 05:19:33;;;;;;;7.63;4.70;;;11.60;71.60;;;;;;5019571;28;20038;-74
2023/03/16 05:21:59;;;;;;;5.72;4.38;;;11.60;71.40;;;;;;5031734;28;20459;-75
2023/03/16 05:24:26;;;;;;;6.68;4.68;;;11.60;71.30;;;;;;5019071;28;20018;-75
2023/03/16 05:26:52;;;;;;;6.55;4.25;;;11.60;71.10;;;;;;5018084;28;20563;-75
2023/03/16 05:29:21;;;;;;;7.22;4.80;;;11.50;70.90;;;;;;5018123;28;20041;-75
2023/03/16 05:31:48;;;;;;;7.15;4.70;;;11.60;70.80;;;;;;5017731;28;20091;-74
2023/03/16 05:34:17;;;;;;;6.85;4.25;;;11.60;70.70;;;;;;5019437;28;20124;-75
2023/03/16 05:36:43;;;;;;;6.93;4.30;;;11.60;70.50;;;;;;5018003;28;20084;-75
2023/03/16 05:39:13;;;;;;;6.75;4.20;;;11.60;70.50;;;;;;5020101;28;20974;-75
2023/03/16 05:41:46;;;;;;;7.15;4.50;;;11.60;70.30;;;;;;5018695;28;20609;-75
2023/03/16 05:44:20;;;;;;;5.75;4.38;;;11.60;70.30;;;;;;5004427;28;20064;-75
2023/03/16 05:46:59;;;;;;;5.78;4.38;;;11.60;70.20;;;;;;5019417;28;20613;-78
2023/03/16 05:49:25;;;;;;;5.63;4.50;;;11.60;70.00;;;;;;5017801;28;20574;-74
2023/03/16 05:51:51;;;;;;;6.00;4.25;;;11.60;70.00;;;;;;5015625;28;20033;-75
2023/03/16 05:54:17;;;;;;;7.22;4.70;;;11.60;69.90;;;;;;5018535;28;20030;-75
2023/03/16 05:56:45;;;;;;;5.72;4.45;;;11.60;69.90;;;;;;5018374;28;20605;-75
2023/03/16 05:59:11;;;;;;;7.00;4.45;;;11.60;69.80;;;;;;5001845;28;20038;-75
2023/03/16 06:01:38;;;;;;;5.70;4.30;;;11.60;69.80;;;;;;5016682;28;20037;-75
2023/03/16 06:04:06;;;;;;;6.03;4.82;;;11.60;69.80;;;;;;5014377;28;20034;-75
2023/03/16 06:06:35;;;;;;;6.55;4.80;;;11.60;69.90;;;;;;5003448;28;20571;-75
2023/03/16 06:09:09;;;;;;;8.75;4.90;;;11.60;70.00;;;;;;5017834;28;20022;-75
2023/03/16 06:11:35;;;;;;;8.27;5.35;;;11.60;69.90;;;;;;5030601;28;20062;-75
2023/03/16 06:14:01;;;;;;;7.72;5.22;;;11.60;69.90;;;;;;5019969;28;20037;-75
2023/03/16 06:16:27;;;;;;;6.00;4.55;;;11.60;70.50;;;;;;5016254;28;20076;-75
2023/03/16 06:18:55;;;;;;;7.13;5.00;;;11.60;69.90;;;;;;5017507;28;20038;-75
2023/03/16 06:21:22;;;;;;;6.03;4.68;;;11.60;70.00;;;;;;5034718;28;20029;-74
2023/03/16 06:23:50;;;;;;;6.47;4.78;;;11.60;69.80;;;;;;5025644;28;20109;-75
2023/03/16 06:26:17;;;;;;;7.35;4.47;;;11.60;69.70;;;;;;5018240;28;20065;-75
2023/03/16 06:28:45;;;;;;;5.82;4.35;;;11.60;69.60;;;;;;5006162;28;20038;-75
2023/03/16 06:31:11;;;;;;;5.72;4.07;;;11.60;69.50;;;;;;5024354;28;20511;-75
2023/03/16 06:33:38;;;;;;;5.97;4.68;;;11.60;69.40;;;;;;5009293;28;20870;-75
2023/03/16 06:36:04;;;;;;;6.22;4.43;;;11.60;69.40;;;;;;5021596;28;20033;-75
2023/03/16 06:38:35;;;;;;;6.55;4.45;;;11.60;69.50;;;;;;5025124;28;20495;-75
2023/03/16 06:41:22;;;;;;;4.88;4.20;;;11.60;69.50;;;;;;5008216;28;20037;-75
2023/03/16 06:43:48;;;;;;;4.57;4.10;;;11.60;69.40;;;;;;5018699;28;20034;-74
2023/03/16 06:46:14;;;;;;;5.38;4.35;;;11.60;69.40;;;;;;5018337;28;20076;-74
2023/03/16 06:48:40;;;;;;;5.47;4.30;;;11.60;69.30;;;;;;5021281;28;20033;-75
2023/03/16 06:51:08;;;;;;;6.32;4.40;;;11.60;69.30;;;;;;5021535;28;20451;-74
2023/03/16 06:53:36;;;;;;;5.40;4.40;;;11.60;69.20;;;;;;5021488;28;20033;-74
2023/03/16 06:56:02;;;;;;;7.03;4.57;;;11.70;69.20;;;;;;5007690;28;20061;-74
2023/03/16 06:58:31;;;;;;;5.25;4.45;;;11.60;69.10;;;;;;5024379;28;20065;-74
2023/03/16 07:01:01;;;;;;;6.18;4.45;;;11.70;69.10;;;;;;5016862;28;20394;-74
2023/03/16 07:03:27;;;;;;;6.10;4.60;;;11.70;69.00;;;;;;5025376;28;20037;-74
2023/03/16 07:05:58;;;;;;;10.80;4.30;;;11.70;68.90;;;;;;5020637;28;20048;-74
2023/03/16 07:08:24;;;;;;;5.90;4.07;;;11.70;68.90;;;;;;5020942;28;20362;-74
2023/03/16 07:10:51;;;;;;;6.45;4.50;;;11.70;68.90;;;;;;5023570;28;20036;-74
2023/03/16 07:13:17;;;;;;;7.30;4.90;;;11.70;68.90;;;;;;5021079;28;20132;-75
2023/03/16 07:15:43;;;;;;;6.05;4.53;;;11.70;68.90;;;;;;5016730;28;20033;-74
2023/03/16 07:18:11;;;;;;;6.53;4.28;;;11.70;68.90;;;;;;5024752;28;20036;-74
2023/03/16 07:20:38;;;;;;;7.63;4.78;;;11.70;68.80;;;;;;5024948;28;20040;-74
2023/03/16 07:23:05;;;;;;;5.55;4.50;;;11.70;68.80;;;;;;5033357;28;20419;-73
2023/03/16 07:25:33;;;;;;;6.30;4.38;;;11.70;68.60;;;;;;5033500;28;20040;-74
2023/03/16 07:27:59;;;;;;;7.20;5.00;;;11.70;68.60;;;;;;5024371;28;20049;-74
2023/03/16 07:30:30;;;;;;;5.97;5.00;;;11.70;68.50;;;;;;5017831;28;20160;-73
2023/03/16 07:32:57;;;;;;;6.53;5.25;;;11.70;68.50;;;;;;5008185;28;20081;-73
2023/03/16 07:35:25;;;;;;;6.72;5.35;;;11.70;68.50;;;;;;5026795;28;20041;-74
2023/03/16 07:37:51;;;;;;;8.25;5.32;;;11.70;68.50;;;;;;5023119;28;20653;-75
2023/03/16 07:40:19;;;;;;;6.97;5.43;;;11.70;68.70;;;;;;5023677;28;20033;-78
2023/03/16 07:42:45;;;;;;;7.28;5.18;;;11.70;68.90;;;;;;5019139;28;20044;-76
2023/03/16 07:45:24;;;;;;;5.63;4.05;;;11.70;70.30;;;;;;5023868;28;20087;-80
2023/03/16 07:47:50;;;;;;;6.45;4.55;;;11.80;70.80;;;;;;5026557;28;20041;-76
2023/03/16 07:50:43;;;;;;;7.07;4.88;;;11.70;70.50;;;;;;5023797;28;20118;-75
2023/03/16 07:53:09;;;;;;;6.50;4.75;;;11.80;70.30;;;;;;5023898;28;20506;-77
2023/03/16 07:55:38;;;;;;;7.72;5.57;;;11.80;70.40;;;;;;5018127;28;20060;-77
2023/03/16 07:58:05;;;;;;;7.60;5.30;;;11.80;70.40;;;;;;5017711;28;20045;-80
2023/03/16 08:00:33;;;;;;;7.05;5.53;;;11.90;70.20;;;;;;5011241;28;20038;-78
2023/03/16 08:03:00;;;;;;;7.28;5.63;;;11.80;69.80;;;;;;5011982;28;20041;-79
2023/03/16 08:05:31;;;;;;;8.93;5.97;;;11.80;69.50;;;;;;5005263;28;20056;-80
2023/03/16 08:08:00;;;;;;;10.45;6.88;;;11.80;69.40;;;;;;5018494;28;20038;-84
2023/03/16 08:10:28;;;;;;;8.60;6.40;;;11.90;69.20;;;;;;5010791;28;20041;-85
2023/03/16 08:13:10;;;;;;;7.25;6.43;;;11.90;69.00;;;;;;5006569;28;20034;-79
2023/03/16 08:15:41;;;;;;;11.88;7.20;;;11.90;68.90;;;;;;5020348;28;20532;-84
2023/03/16 08:18:16;;;;;;;8.93;6.90;;;11.90;68.80;;;;;;5029048;28;20516;-78
2023/03/16 08:20:43;;;;;;;8.18;7.00;;;11.90;68.80;;;;;;5029308;28;20037;-80
2023/03/16 08:23:14;;;;;;;9.77;7.55;;;11.90;68.60;;;;;;5027924;28;20407;-82
2023/03/16 08:25:40;;;;;;;9.45;6.80;;;11.90;68.60;;;;;;5025633;28;20034;-78
2023/03/16 08:28:11;;;;;;;11.15;7.70;;;11.90;68.40;;;;;;5020376;28;20042;-79
2023/03/16 08:30:45;;;;;;;9.45;7.80;;;11.90;68.40;;;;;;5020284;28;20444;-77
2023/03/16 08:33:23;;;;;;;11.47;7.63;;;11.90;68.20;;;;;;5017489;28;20091;-78
2023/03/16 08:35:50;;;;;;;10.80;7.97;;;12.00;68.20;;;;;;5023734;28;20030;-77
2023/03/16 08:38:17;;;;;;;10.00;7.78;;;11.90;68.10;;;;;;5032394;28;20316;-77
2023/03/16 08:40:47;;;;;;;9.20;7.55;;;11.90;68.00;;;;;;5032616;28;20509;-78
2023/03/16 08:43:15;;;;;;;12.00;7.50;;;12.00;68.10;;;;;;5017901;28;20036;-77
2023/03/16 08:45:47;;;;;;;12.63;8.57;;;12.00;68.10;;;;;;5017564;28;20068;-78
2023/03/16 08:48:15;;;;;;;12.30;8.18;;;12.00;68.10;;;;;;5023531;28;20539;-77
2023/03/16 08:50:45;;;;;;;11.40;8.02;;;12.00;67.90;;;;;;5022502;28;20033;-77
2023/03/16 08:53:13;;;;;;;10.65;7.80;;;12.00;68.00;;;;;;5015885;28;21010;-76
2023/03/16 08:55:43;;;;;;;9.88;7.80;;;12.00;68.00;;;;;;5022681;28;20646;-78
2023/03/16 08:58:09;;;;;;;10.25;8.50;;;12.00;68.00;;;;;;5022784;28;20037;-78
2023/03/16 09:00:36;;;;;;;9.82;8.43;;;12.00;68.00;;;;;;5023264;28;20396;-78
2023/03/16 09:03:02;;;;;;;10.07;8.05;;;12.00;67.90;;;;;;5015760;28;20040;-79
2023/03/16 09:05:29;;;;;;;10.73;8.90;;;12.00;67.80;;;;;;5015184;28;20041;-78
2023/03/16 09:07:55;;;;;;;12.40;8.95;;;12.00;67.80;;;;;;5016714;28;20030;-77
2023/03/16 09:10:22;;;;;;;11.25;8.63;;;12.00;67.70;;;;;;5015587;28;20478;-78
2023/03/16 09:12:52;;;;;;;13.05;8.75;;;12.00;67.80;;;;;;5016233;28;20525;-78
2023/03/16 09:15:19;;;;;;;11.40;8.93;;;12.00;67.70;;;;;;5015364;28;20064;-77
2023/03/16 09:17:46;;;;;;;10.82;8.88;;;12.00;67.80;;;;;;5016385;28;20064;-79
2023/03/16 09:20:19;;;;;;;9.85;8.40;;;12.00;67.80;;;;;;5015674;28;20053;-78
2023/03/16 09:22:47;;;;;;;14.02;10.18;;;12.00;67.60;;;;;;5015817;28;20067;-78
2023/03/16 09:25:13;;;;;;;12.55;9.98;;;12.00;67.50;;;;;;5015493;28;20036;-78
2023/03/16 09:27:39;;;;;;;14.63;10.85;;;12.00;67.40;;;;;;5016493;28;20029;-80
2023/03/16 09:30:07;;;;;;;17.05;10.55;;;12.00;67.40;;;;;;5031440;28;20051;-77
2023/03/16 09:32:36;;;;;;;13.20;10.02;;;12.00;67.30;;;;;;5018082;28;20473;-78
2023/03/16 09:35:04;;;;;;;12.48;9.90;;;12.10;67.30;;;;;;5035335;28;20120;-81
2023/03/16 09:37:31;;;;;;;11.77;9.65;;;12.00;67.20;;;;;;5017130;28;20041;-78
2023/03/16 09:39:57;;;;;;;11.13;9.30;;;12.10;67.30;;;;;;5034798;28;20037;-77
2023/03/16 09:42:37;;;;;;;12.88;10.02;;;12.10;67.20;;;;;;5035263;28;20032;-77
2023/03/16 09:45:25;;;;;;;12.50;9.80;;;12.10;67.40;;;;;;5035672;28;20095;-82
2023/03/16 09:47:57;;;;;;;13.13;10.70;;;12.10;67.40;;;;;;5035429;28;20048;-77
2023/03/16 09:50:28;;;;;;;13.30;10.52;;;12.00;67.30;;;;;;5035020;28;20064;-81
2023/03/16 09:53:03;;;;;;;14.38;11.13;;;12.10;67.80;;;;;;5034553;28;20041;-77
2023/03/16 09:55:34;;;;;;;15.52;12.80;;;12.10;68.10;;;;;;5035294;28;20069;-80
2023/03/16 09:58:03;;;;;;;16.63;12.65;;;12.00;66.90;;;;;;5035019;28;20139;-81
2023/03/16 10:00:40;;;;;;;17.35;14.02;;;12.00;65.90;;;;;;5035091;28;20041;-79
2023/03/16 10:03:12;;;;;;;18.65;13.55;;;11.90;65.00;;;;;;5019906;28;20074;-75
2023/03/16 10:05:39;;;;;;;17.05;13.73;;;11.80;64.70;;;;;;5033165;28;20049;-76
2023/03/16 10:08:21;;;;;;;21.25;14.48;;;11.80;64.70;;;;;;5035483;28;20060;-75
2023/03/16 10:10:59;;;;;;;20.55;14.73;;;11.70;64.60;;;;;;5034728;28;20087;-75
2023/03/16 10:14:04;;;;;;;18.33;14.13;;;11.60;64.80;;;;;;5019757;28;20040;-75
2023/03/16 10:16:37;;;;;;;16.55;13.65;;;11.50;64.80;;;;;;5023933;28;20037;-75
2023/03/16 10:19:32;;;;;;;18.88;15.00;;;11.50;64.80;;;;;;5035223;28;20419;-74
2023/03/16 10:22:01;;;;;;;17.40;14.95;;;11.40;64.70;;;;;;4962835;28;20037;-74
2023/03/16 10:24:33;;;;;;;17.83;13.88;;;11.30;64.70;;;;;;4946811;28;20123;-75
2023/03/16 10:27:00;;;;;;;17.35;14.20;;;11.30;65.00;;;;;;4962542;28;20062;-75
2023/03/16 10:29:35;;;;;;;17.45;14.00;;;11.20;65.20;;;;;;4962470;28;20493;-74
2023/03/16 10:32:15;;;;;;;17.83;14.20;;;11.20;65.20;;;;;;4962372;28;20143;-75
2023/03/16 10:34:47;;;;;;;18.20;13.88;;;11.20;65.30;;;;;;4934429;28;20593;-74
2023/03/16 10:37:13;;;;;;;16.88;13.27;;;11.10;65.30;;;;;;4962472;28;20403;-74
2023/03/16 10:39:42;;;;;;;16.65;12.95;;;11.10;65.30;;;;;;4962441;28;20506;-74
2023/03/16 10:42:16;;;;;;;17.40;13.40;;;11.00;65.50;;;;;;4963378;28;20038;-74
2023/03/16 10:44:43;;;;;;;20.60;15.27;;;11.00;65.50;;;;;;4963784;28;20042;-74
2023/03/16 10:47:21;;;;;;;18.35;14.45;;;11.00;65.70;;;;;;4962182;28;20054;-74
2023/03/16 10:49:49;;;;;;;20.33;14.50;;;10.90;65.60;;;;;;4962777;28;20062;-74
2023/03/16 10:52:53;;;;;;;20.60;15.25;;;10.90;65.90;;;;;;4961733;28;20042;-74
2023/03/16 10:55:23;;;;;;;20.30;15.75;;;10.90;66.00;;;;;;4923915;29;20035;-74
2023/03/16 10:57:55;;;;;;;19.52;15.70;;;10.80;65.80;;;;;;4910744;28;20048;-74
2023/03/16 11:00:25;;;;;;;20.05;16.10;;;10.80;65.80;;;;;;4982115;28;20125;-74
2023/03/16 11:02:54;;;;;;;21.05;15.15;;;10.80;65.80;;;;;;4982227;28;20149;-75
2023/03/16 11:05:25;;;;;;;19.83;15.15;;;10.70;65.90;;;;;;4983855;28;20080;-74
2023/03/16 11:07:58;;;;;;;18.38;14.73;;;10.70;66.10;;;;;;4985563;28;20034;-74
2023/03/16 11:10:30;;;;;;;18.92;15.02;;;10.70;66.00;;;;;;4985531;28;20057;-74
2023/03/16 11:13:21;;;;;;;21.85;16.83;;;10.70;66.30;;;;;;4969347;28;20162;-74
2023/03/16 11:16:16;;;;;;;20.27;16.55;;;10.60;66.10;;;;;;4984085;28;20037;-74
2023/03/16 11:18:49;;;;;;;19.55;16.65;;;10.60;66.00;;;;;;4957355;28;20046;-74
2023/03/16 11:21:17;;;;;;;20.00;15.68;;;10.60;66.00;;;;;;4985622;28;20046;-74
2023/03/16 11:23:54;;;;;;;20.23;15.80;;;10.50;66.10;;;;;;4985756;28;20061;-77
2023/03/16 11:26:42;;;;;;;18.60;13.60;;;10.50;66.30;;;;;;4984715;28;20409;-76
2023/03/16 11:29:36;;;;;;;17.10;13.82;;;10.50;66.50;;;;;;4994038;28;20037;-78
2023/03/16 11:32:15;;;;;;;15.85;12.75;;;10.60;66.60;;;;;;5037571;28;20048;-76
2023/03/16 11:34:42;;;;;;;15.70;12.30;;;10.60;66.80;;;;;;5023763;28;20039;-77
2023/03/16 11:37:11;;;;;;;14.98;12.68;;;10.70;67.00;;;;;;5037928;28;20419;-77
2023/03/16 11:40:15;;;;;;;14.35;10.68;;;10.70;67.10;;;;;;5037298;28;20044;-77
2023/03/16 11:43:03;;;;;;;12.45;10.38;;;10.70;67.00;;;;;;5039572;28;20055;-77
2023/03/16 11:45:59;;;;;;;12.48;10.60;;;10.70;67.10;;;;;;5038267;28;20120;-75
2023/03/16 11:48:47;;;;;;;13.60;10.55;;;10.80;67.10;;;;;;5020673;28;20488;-75
2023/03/16 11:51:50;;;;;;;14.45;11.00;;;10.80;67.20;;;;;;5035132;28;20539;-75
2023/03/16 11:54:35;;;;;;;21.15;10.90;;;10.80;67.20;;;;;;5035497;28;20512;-77
2023/03/16 11:57:41;;;;;;;11.85;10.18;;;10.90;67.70;;;;;;5036672;28;20046;-76
2023/03/16 12:00:34;;;;;;;14.43;10.23;;;10.90;68.00;;;;;;5034725;28;20041;-77
2023/03/16 12:03:21;;;;;;;12.80;10.13;;;10.90;68.00;;;;;;5022224;28;20072;-77
2023/03/16 12:06:02;;;;;;;13.02;9.88;;;10.90;67.80;;;;;;5035369;28;20134;-77
2023/03/16 12:08:41;;;;;;;12.63;10.20;;;10.90;67.60;;;;;;5036114;28;20553;-77
2023/03/16 12:11:23;;;;;;;13.40;9.82;;;11.00;67.70;;;;;;5036395;28;20041;-77
2023/03/16 12:14:07;;;;;;;15.07;10.27;;;11.00;67.70;;;;;;5036029;28;20082;-77
2023/03/16 12:16:52;;;;;;;11.90;9.52;;;11.00;67.60;;;;;;5016722;28;20107;-76
2023/03/16 12:19:27;;;;;;;11.77;9.50;;;11.00;67.50;;;;;;5037034;28;20049;-77
2023/03/16 12:22:20;;;;;;;10.80;8.77;;;11.00;67.40;;;;;;5034972;28;20507;-76
2023/03/16 12:24:46;;;;;;;12.43;9.60;;;11.00;67.40;;;;;;5034565;28;20518;-77
2023/03/16 12:27:30;;;;;;;12.00;9.85;;;11.10;68.00;;;;;;5020640;28;20217;-76
2023/03/16 12:30:05;;;;;;;9.82;8.82;;;11.10;67.40;;;;;;5019815;28;20183;-77
2023/03/16 12:32:40;;;;;;;11.57;9.48;;;11.10;67.40;;;;;;5009237;28;21749;-77
2023/03/16 12:35:25;;;;;;;;;;;11.10;67.40;;;;;;5035303;28;20347;-77
2023/03/16 12:38:00;;;;;;;12.07;9.05;;;11.10;67.30;;;;;;5035471;28;19936;-77
2023/03/16 12:40:27;;;;;;;10.82;9.43;;;11.20;67.30;;;;;;5035243;28;20049;-77
2023/03/16 12:43:04;;;;;;;12.40;10.00;;;11.10;67.30;;;;;;5034006;28;20041;-76
2023/03/16 12:45:41;;;;;;;15.60;10.10;;;11.20;67.40;;;;;;5034962;28;20041;-76
2023/03/16 12:48:11;;;;;;;12.52;8.68;;;11.10;67.70;;;;;;5035928;28;20049;-77
2023/03/16 12:50:57;;;;;;;10.15;7.95;;;11.20;68.00;;;;;;5034568;28;20067;-78
2023/03/16 12:53:45;;;;;;;8.88;7.97;;;11.20;67.90;;;;;;5023202;28;20128;-78
2023/03/16 12:56:16;;;;;;;8.70;7.20;;;11.20;67.70;;;;;;5034962;28;20125;-78
2023/03/16 12:58:46;;;;;;;9.55;7.32;;;11.20;67.50;;;;;;5033959;28;20061;-77
2023/03/16 13:01:15;;;;;;;9.02;6.97;;;11.20;67.40;;;;;;5033173;28;20041;-77
2023/03/16 13:03:43;;;;;;;7.43;6.22;;;11.20;67.90;;;;;;5035213;28;20527;-78